很BT电影联盟,BT联盟,BTchina联盟,BT中国联盟,BT大联盟,BT影视联盟,BT下载联盟

高清下载论坛 | 爱上高清网 | 资源搜索 | 发布资源 | 加入收藏

新银河娱乐城

很BT发布页,资源发布帐号申请请联系: 190939100@qq.com,QQ:190939100。注明:发布小组 (广告业务 注明:广告)

种子下载:在资源页面的左上角<资源介绍的左边>"点击此处下载种子" 右键“目标另存为”即可下载种子

资源分享 RSS

发布时间 分类 资源名称 大小 种子 下载 完成 发布者/联盟
08/15 20:52 720P高清 [美国][动作/科幻/冒险][美国队长2][BD-mkv/3.70GB][英语国语双音轨][美14万众期待票房] [讨论] 3.7GB 0 0 2 killman
08/15 16:25 最新电影 [法国][动作/犯罪/剧情][暴力街区][HD-MP4/863MB][中字][保罗沃克14超火爆动作] [讨论] 863.1MB 0 0 8 killman
08/14 18:34 最新电影 [美国][战争][肮脏的战争/Dirty Wars][BD-R/2G][英语中字][美国反恐战争血腥屠杀的残酷秘密] [讨论] 2.0GB 0 0 4 飘域家园
08/14 17:26 720P高清 [美国][动作/科幻/奇幻/冒险][超凡蜘蛛侠2][BD-mkv/3.85GB][英语国语双音轨][14万众期待巨制] [讨论] 3.9GB 0 0 5 killman
08/14 15:01 最新电影 [中国][剧情/悬疑/惊悚][催眠大师][HD-MP4/0.99GB][国语][徐峥莫文蔚14万众期待] [讨论] 1015.4MB 0 0 6 killman
08/13 21:52 720P高清 [2014美国科幻/动作 变形金刚4:绝迹重生/英语/MP4/720P/4.0G/中文字幕] [讨论] 3.0GB 0 0 38 ysfx
08/13 09:25 最新电影 [中国][剧情][归来/coming-home][BD-R/2G][国语中英字][2014陈道明巩俐张艺谋1080P] [讨论] 1.9GB 0 0 1 飘域家园
08/12 18:28 MKV电影 [2014年美国最新战争动作][锅盖头2:雷霆救援][BluRay-720P.MKV][中英字幕] 2.2GB 0 0 5 5658网
08/12 18:21 最新电影 [1948年美国高评价悬疑惊悚][夺魂索][BluRay-720P.MKV][中英字幕][TOP250] 2.2GB 0 0 3 5658网
08/12 14:20 MKV电影 豹.Il.gattopardo.1963.中文字幕.HR-HDTV.AC3.1024X576.x264-人人影视网原创 2.7GB 0 0 1 人人影视
08/12 14:15 MKV电影 神机妙算.Le.clan.des.Siciliens.1969.中文字幕.HR-HDTV.AC3.1024x576.x264-人人影视网原创 1.9GB 0 0 1 人人影视
08/12 14:12 MKV电影 老枪.Le.vieux.fusil.1975.中文字幕.国法三音轨.HR-HDTV.AC3.960x576.x264-人人影视网原创 1.7GB 0 0 3 人人影视
08/12 14:08 MKV电影 国王与我.The.King.and.I.1956.双语字幕.HR-HDTV.AC3.1024X576.x264-人人影视网原创 2.0GB 0 0 2 人人影视
08/12 13:59 MKV电影 太空先锋.The.Right.Stuff.1983.双语字幕.HR-HDTV.AC3.1024X576.x264-人人影视网原创 2.9GB 0 0 3 人人影视
08/12 13:52 1080P [天才眼镜狗]2014.BluRay.1080p.x264-HDWing 国粤英三语/中英字幕/11.8G 11.8GB 0 0 3 Y4DG论坛
08/12 13:48 720P高清 [天才眼镜狗]M.P.A.S.2014.BluRay.720p.DTS.3Audio.x264-CHD 中文字幕/4.64G 4.6GB 0 0 0 Y4DG论坛
08/12 12:48 1080P [佳人蓓尔]Belle.2013.BluRay.1080p.DTS.x264-CHD 中文字幕/7.91G 8.0GB 0 0 0 Y4DG论坛
08/12 12:41 MKV电影 [佳人蓓尔]Belle.2013.BluRay.720p.DTS.x264-CHD 中文字幕/4.36G 4.4GB 0 0 1 Y4DG论坛
08/12 12:35 720P高清 [寻访千利休]Ask.This.of.Rikyu.2013.720p.BluRay.x264-WiKi 内封中文字幕/4.39G 4.4GB 0 0 1 Y4DG论坛
08/12 12:33 1080P [寻访千利休]Ask.This.of.Rikyu.2013.1080p.BluRay.x264-WiKi 内封中文字幕/7.98G 8.1GB 0 0 0 Y4DG论坛
08/12 12:23 1080P [双重人格/替身]The.Double.2013.1080p.BluRay.x264.DTS-WiKi 中文字幕/9.28G 9.4GB 0 0 1 Y4DG论坛
08/12 12:18 720P高清 [双重人格/替身]The.Double.2013.720p.BluRay.x264.DTS-WiKi 中文字幕/4.4G 4.5GB 0 0 1 Y4DG论坛
08/12 09:10 RMVB电影 [美国][动作][新雌雄大盗][DVD-RMVB/1.4G][英语中字][凄美真实感人的爱情动作传奇故事] [讨论] 1.4GB 0 0 1 飘域家园
08/11 22:36 最新电影 [中国][毛驴县令之大事小情][HD-RMVB.720p.国语中字][2014年潘长江动作喜剧] 1.3GB 0 0 3 BT无忧无虑
08/11 22:35 最新电影 [中国][毛驴县令之棒子老虎鸡][HD-RMVB.720p.国语中字][2014年潘长江动作喜剧] 1.2GB 0 0 6 BT无忧无虑
08/11 22:33 最新电影 [中国][毛驴县令之母鸡打鸣][HD-RMVB.720p.国语中字][2014年潘长江动作喜剧] 1.1GB 0 0 2 BT无忧无虑
08/11 13:27 MKV电影 瑟堡的雨伞.1964.中文字幕.HR-HDTV.AC3.1024x552.x264-人人影视网原创 1.4GB 0 0 2 人人影视
08/11 13:20 MKV电影 子弹.Bullet.2014.双语字幕.HR-HDTV.AC3.1024X576.x264-人人影视网原创 1.3GB 0 0 4 人人影视
08/11 13:00 MKV电影 爱在招生部.Admission.2013.双语字幕.HR-HDTV.AC3.1024X576.x264-人人影视网原创 1.6GB 0 0 21 人人影视
08/11 12:15 MKV电影 完美世界.A.Perfect.World.1993.双语字幕.HR-HDTV.AC3.1024X576.x264-人人影视网原创 2.1GB 0 0 2 人人影视
08/11 10:25 最新电影 [2014][中国][悬疑/惊悚][京城81号][HD-RMVB/886MB][国语中字][清晰1280版/吴镇宇/林心如] 886.8MB 0 0 2247 Imovie
08/11 10:23 最新电影 [2014][中国][喜剧/爱情][小时代3:刺金时代][HD-RMVB/1.24GB][国语中英双字][清晰1280版] 1.2GB 0 0 6001 Imovie
08/11 09:26 最新电影 [中国][悬疑/恐怖][死亡邮件][BD-RMVB/1.9G][国语中字][2014最新嫌疑多明星惊悚大片720P] [讨论] 1.9GB 0 0 8 飘域家园
08/10 23:52 最新电影 [中国][毛驴县令之你我他][HD-RMVB.720p.国语中字][2014年潘长江动作喜剧] 1.1GB 0 0 57 BT无忧无虑
08/10 23:51 最新电影 [中国][毛驴县令之移花接木][HD-RMVB.720p.国语中字][2014年潘长江动作喜剧] 1.0GB 0 0 99 BT无忧无虑
08/10 21:57 MKV电影 [美国队长2]C.A.T.W.S.2014.720p.BluRay.x264.AC3-CNXP[国英双语/中英字幕/3.3G] 3.3GB 0 0 24 影视帝国
08/10 21:50 MKV电影 [分歧者:异类觉醒]Divergent.2014.720p.BluRay.x264.AC3-CNXP[中英字幕/3G] 3.0GB 0 0 0 影视帝国
08/10 21:42 MKV电影 [天才眼镜狗]2014.720p.BluRay.x264.AC3-CNXP[国英粤台四语/中英字幕/2.7G] 2.7GB 0 0 2 影视帝国
08/10 21:39 MKV电影 [我的邻居山田君]1999.720p.BluRay.x264.AC3-CNXP[国日英三语/中文字幕/2.7G] 2.7GB 0 0 0 影视帝国
08/10 21:30 MKV电影 [萤火虫之墓]1988.720p.BluRay.x264.AC3-CNXP[国日粤三语/中文字幕/2.3G] 2.3GB 0 0 1 影视帝国
08/10 20:38 MKV电影 极地大冒险.Niko-Lentajan.poika.2008.双语字幕.HR-HDTV.AC3.1024X550.x264-人人影视网原创 1.2GB 0 0 1 人人影视
08/10 20:34 MKV电影 华沙谍战.Jack.Strong.2014.双语字幕.HR-HDTV.AC3.1024X576.x264-人人影视网原创 1.9GB 0 0 14 人人影视
08/10 20:28 MKV电影 奥勃洛莫夫一生中的几天.1979.中文字幕.HR-HDTV.AC3.804x576.x264-人人影视网原创 2.2GB 0 0 1 人人影视
08/10 20:14 MKV电影 地球战场.Battlefield.Earth.2000.双语字幕.HR-HDTV.AC3.1024X576.x264-人人影视网原创 1.8GB 0 0 1 人人影视
08/10 20:06 MKV电影 雌雄大盗.Bonnie.and.Clyde.双语字幕.国英音轨.HR-HDTV.AC3.1024X576.x264-人人影视网原创 1.7GB 0 0 1 人人影视
08/10 19:54 MKV电影 移民.The.Immigrant.2013.中文字幕.HR-HDTV.AC3.1024X576.x264-人人影视网原创 1.8GB 0 0 0 人人影视
08/10 16:12 720P高清 [神秘博士:时空大冒险] Doctor.Who.An.Adventure.in.Space.and.Time.2013.720p.BluRay.x264 4.37G 4.4GB 0 0 1 badboy
08/10 16:09 1080P [神秘博士:时空大冒险] Doctor.Who.An.Adventure.in.Space.and.Time.2013.1080p.BluRay.x264 8.74G 8.9GB 0 0 0 badboy
08/10 15:59 720P高清 [博士之时] Doctor.Who.The.Time.of.the.Doctor.2013.720p.BluRay.x264 3.28G 3.3GB 0 0 0 badboy
08/10 15:54 1080P [博士之时] Doctor.Who.The.Time.of.the.Doctor.2013.1080p.BluRay.x264 6.56G 6.6GB 0 0 1 badboy
08/10 15:01 1080P [神秘博士1-4季]Doctor.Who.(2005).Season.1-4.BluRay.1080P-ShortbreHD 176.04G 176.0GB 0 0 1 badboy
08/10 14:30 1080P [神秘博士第七季] Doctor.Who.2005.S07.1080p.BluRay.x264 42.62G 42.6GB 0 0 0 badboy
08/10 13:14 720P高清 [神秘博士第七季] Doctor.Who.2005.S07.Season.7.720p.BluRay.x264-PublicHD 28.42G 28.4GB 0 0 0 badboy
08/10 11:23 720P高清 [神秘博士第六季] Doctor.Who.2005.S06.720p.BluRay.x264-SHORTBREHD 28.42G 28.4GB 0 0 2 badboy
08/10 11:12 720P高清 [神秘博士第五季] Doctor.Who.2005.S05.720p.HDTV.x264-HD 29.14G 29.1GB 0 0 0 badboy
08/10 10:56 720P高清 [神秘博士第四季] Doctor.Who.2005.S04.Season.4.720p.BluRay.x264-SHORTBREHD 28.84G 28.8GB 0 0 0 badboy
08/10 10:51 720P高清 [神秘博士第三季] Doctor.Who.2005.S03.Season.3.720p.BluRay.x264-SHORTBREHD 28.38G 28.4GB 0 0 0 badboy
08/10 10:40 720P高清 [神秘博士第二季] Doctor.Who.2005.S02.Season.2.720p.BluRay.x264-SHORTBREHD 28.38G 28.4GB 0 0 0 badboy
08/10 10:15 720P高清 [神秘博士第一季] Doctor.Who.2005.S01.Season.1.720p.BluRay.x264-SHORTBREHD 28.38G 28.4GB 0 0 0 badboy
08/10 09:44 720P高清 [神秘博士:死亡星球].Doctor.Who.Planet.Of.The.Dead.2009.720p.Bluray.x264 2.65G 2.7GB 0 0 0 badboy
08/10 09:35 RMVB电影 [2012][BBC][科幻][神秘博士2012圣诞特别篇:雪人][HD-RMVB/623.5M][中英双字][720P] 623.5MB 0 0 2 badboy
08/10 09:23 RMVB电影 [2013][BBC][科幻][博士之日/神秘博士50周年特别篇][BD-RMVB/956.7M][中英双字][720P] 956.7MB 0 0 2 badboy
08/10 08:41 最新电影 [2014][美国][科幻/动画][钢铁侠与美国队长:英雄集结][BD-RMVB/888.3M][中字] 888.3MB 0 0 2975 badboy
08/10 00:54 RMVB电影 [2000][美澳][科幻/冒险][星际传奇][BD-RMVB/1.34G][中英字幕][480/720P双版] 2.1GB 0 0 0 影视帝国
08/10 00:44 RMVB电影 [2013][美英澳][喜剧/传记][大梦想家][BD-RMVB/1.5G][中英字幕][480/720P双版] 2.3GB 0 0 0 影视帝国
08/10 00:37 RMVB电影 [2013][美国][传记/历史][续命枭雄][BD-RMVB/1.39G][中英字幕][480/720P双版] 2.1GB 0 0 0 影视帝国
08/10 00:20 RMVB电影 [2004][美意卢英][剧情][威尼斯商人][BD-RMVB/1.58G][中英字幕][480/720P双版] 2.4GB 0 0 0 影视帝国
08/09 23:17 最新电影 [英国][双重人格][BD-RMVB.720p.中英双字][2013年惊悚] 1.0GB 0 0 5 BT无忧无虑
08/09 23:14 最新电影 [美国][蝙蝠侠:突袭阿卡姆][BD-RMVB.720p.中英双字][2014年科幻动画] 845.9MB 0 0 12 BT无忧无虑
08/09 23:06 MKV电影 罗塞塔.Rosetta.1999.中文字幕.HR-HDTV.AC3.956x576.x264-人人影视网原创 1.4GB 0 0 0 人人影视
08/09 23:01 MKV电影 温布尔登.Wimbledon.2004.双语字幕.HR-HDTV.AC3.1024X576.x264-人人影视网原创 1.5GB 0 0 2 人人影视
08/09 22:53 MKV电影 佳人蓓尔.Belle.2013.双语字幕.HR-HDTV.AC3.1024X576.x264-人人影视网原创 1.6GB 0 0 2 人人影视
08/09 22:20 MKV电影 最小的天使.The.Littlest.Angel.2011.双语字幕.HR-HDTV.AC3.1024X576.x264-人人影视网原创 1.3GB 0 0 5 人人影视
08/09 22:10 MKV电影 红一纵队.The.Big.Red.One.1980.双语字幕.HR-HDTV.AC3.1024X576.x264-人人影视网原创 1.7GB 0 0 2 人人影视
08/09 15:27 MKV电影 锅盖头2.Jarhead.2.Field.of.Fire.2014.双语字幕.HR-HDTV.AC3.1024X576.x264-人人影视网原创 1.6GB 0 0 7 人人影视
08/09 14:49 MKV电影 锅盖头.Jarhead.2005.双语字幕.国英音轨.HR-HDTV.AC3.1024X576.x264-人人影视网原创 2.2GB 0 0 1 人人影视
08/09 14:46 MKV电影 判我有罪.Find.Me.Guilty.2006.双语字幕.HR-HDTV.AC3.1024X576.x264-人人影视网原创 1.9GB 0 0 2 人人影视
08/09 14:42 MKV电影 戴安娜.Diana.2013.双语字幕.HR-HDTV.AC3.1024X554.x264-人人影视网原创 1.7GB 0 0 5 人人影视
08/09 14:39 MKV电影 拉拉队员都死了.All.Cheerleaders.Die.双语字幕.HR-HDTV.AC3.1024X576.x264-人人影视网原创 1.4GB 0 0 4 人人影视
08/09 11:32 高清连续剧 [国产][产科医生][国语中字][DVD-MP4][42集全] 16.4GB 0 0 18 z198711211